Time;durP1;ratioP1;P1;durP2;ratioP2;P2;SDS_P1;SDS_P2;PMS_P1;PMS_P2;Temp;Humidity;BMP_temperature;BMP_pressure;BME280_temperature;BME280_humidity;BME280_pressure;Samples;Min_cycle;Max_cycle;Signal;HPM_P1;HPM_P2
2024/01/23 00:00:35;;;;;;;0.00;0.00;;;;;;;7.16;100.00;99222.41;5053764;28;20191;-52
2024/01/23 00:03:25;;;;;;;0.00;0.00;;;;;;;7.23;100.00;99219.44;5053326;28;20220;-53
2024/01/23 00:06:11;;;;;;;0.00;0.00;;;;;;;7.10;100.00;99225.31;5053474;28;20207;-53
2024/01/23 00:08:58;;;;;;;0.00;0.00;;;;;;;7.05;100.00;99219.44;5052225;28;20584;-53
2024/01/23 00:11:45;;;;;;;0.10;0.10;;;;;;;7.06;100.00;99221.16;5053474;28;20203;-53
2024/01/23 00:14:33;;;;;;;0.10;0.10;;;;;;;7.07;100.00;99217.59;5052851;28;20224;-52
2024/01/23 00:17:20;;;;;;;0.03;0.03;;;;;;;7.01;100.00;99233.66;5033450;28;20200;-53
2024/01/23 00:20:12;;;;;;;0.00;0.00;;;;;;;7.04;100.00;99237.94;5033371;28;20192;-53
2024/01/23 00:22:59;;;;;;;0.10;0.10;;;;;;;7.03;100.00;99242.34;5033275;28;20231;-52
2024/01/23 00:25:47;;;;;;;0.10;0.10;;;;;;;7.05;100.00;99237.88;5041033;28;20191;-53
2024/01/23 00:28:34;;;;;;;0.00;0.00;;;;;;;7.04;100.00;99259.00;5053170;28;20266;-53
2024/01/23 00:31:22;;;;;;;0.00;0.00;;;;;;;7.06;100.00;99226.41;5053028;28;20238;-52
2024/01/23 00:34:09;;;;;;;0.10;0.10;;;;;;;7.03;100.00;99229.16;5052959;28;20208;-53
2024/01/23 00:36:58;;;;;;;0.10;0.10;;;;;;;7.00;100.00;99233.75;5053102;28;20200;-53
2024/01/23 00:39:45;;;;;;;0.10;0.10;;;;;;;6.97;100.00;99239.16;5051655;28;20194;-52
2024/01/23 00:42:32;;;;;;;0.10;0.10;;;;;;;6.95;100.00;99227.84;5052882;28;20699;-52
2024/01/23 00:45:19;;;;;;;0.10;0.10;;;;;;;6.98;100.00;99243.50;5052968;28;20279;-52
2024/01/23 00:48:08;;;;;;;0.07;0.07;;;;;;;6.94;100.00;99239.28;5052927;28;20192;-52
2024/01/23 00:50:54;;;;;;;0.10;0.10;;;;;;;6.97;100.00;99239.16;5052868;28;20302;-53
2024/01/23 00:53:41;;;;;;;0.00;0.00;;;;;;;6.94;100.00;99250.69;5051355;28;20216;-53
2024/01/23 00:56:28;;;;;;;0.10;0.10;;;;;;;6.91;100.00;99244.72;5052666;28;20204;-53
2024/01/23 00:59:15;;;;;;;0.00;0.00;;;;;;;6.90;100.00;99257.03;5052838;28;20191;-53
2024/01/23 01:02:03;;;;;;;0.07;0.07;;;;;;;6.83;100.00;99264.34;5052564;28;20208;-53
2024/01/23 01:04:51;;;;;;;0.10;0.10;;;;;;;6.80;100.00;99263.66;5052160;28;20232;-52
2024/01/23 01:07:38;;;;;;;0.00;0.00;;;;;;;6.88;100.00;99258.91;5054573;28;20208;-52
2024/01/23 01:10:25;;;;;;;0.00;0.00;;;;;;;6.91;100.00;99266.63;5055486;28;20271;-53
2024/01/23 01:13:12;;;;;;;0.10;0.10;;;;;;;6.84;100.00;99287.13;5056710;28;20322;-53
2024/01/23 01:15:59;;;;;;;0.00;0.00;;;;;;;6.77;100.00;99292.78;5056676;28;20208;-53
2024/01/23 01:18:46;;;;;;;0.00;0.00;;;;;;;6.81;100.00;99297.81;5056809;28;20224;-52
2024/01/23 01:21:34;;;;;;;0.10;0.10;;;;;;;6.84;100.00;99302.06;5056869;28;20308;-53
2024/01/23 01:24:21;;;;;;;0.10;0.10;;;;;;;6.85;100.00;99314.28;5055158;28;20184;-53
2024/01/23 01:27:08;;;;;;;0.00;0.00;;;;;;;6.87;100.00;99308.06;5056399;28;20200;-52
2024/01/23 01:29:55;;;;;;;0.03;0.03;;;;;;;6.89;100.00;99322.00;5056418;28;20196;-52
2024/01/23 01:32:42;;;;;;;0.00;0.00;;;;;;;6.81;100.00;99313.59;5056440;28;20266;-52
2024/01/23 01:35:29;;;;;;;0.10;0.10;;;;;;;6.79;100.00;99322.50;5056050;28;20219;-53
2024/01/23 01:38:17;;;;;;;0.00;0.00;;;;;;;6.77;100.00;99319.94;5056408;28;20196;-52
2024/01/23 01:41:04;;;;;;;0.00;0.00;;;;;;;6.70;100.00;99310.63;5055932;28;20267;-52
2024/01/23 01:43:51;;;;;;;0.00;0.00;;;;;;;6.62;100.00;99312.72;5055469;28;20203;-53
2024/01/23 01:46:38;;;;;;;0.10;0.10;;;;;;;6.57;100.00;99320.00;5055912;28;20297;-53
2024/01/23 01:49:26;;;;;;;0.10;0.10;;;;;;;6.51;100.00;99320.25;5055754;28;20331;-53
2024/01/23 01:52:13;;;;;;;0.10;0.10;;;;;;;6.51;100.00;99325.53;5056184;28;20375;-53
2024/01/23 01:55:02;;;;;;;0.10;0.10;;;;;;;6.49;100.00;99319.47;5054477;28;20239;-52
2024/01/23 01:57:49;;;;;;;0.00;0.00;;;;;;;6.44;100.00;99321.44;5056001;28;20215;-52
2024/01/23 02:00:36;;;;;;;0.00;0.00;;;;;;;6.36;100.00;99329.69;5056004;28;20262;-53
2024/01/23 02:03:22;;;;;;;0.00;0.00;;;;;;;6.44;100.00;99332.81;5055726;28;20335;-53
2024/01/23 02:06:10;;;;;;;0.00;0.00;;;;;;;6.45;100.00;99352.94;5055875;28;20307;-52
2024/01/23 02:08:58;;;;;;;0.10;0.10;;;;;;;6.51;100.00;99339.53;5053963;28;20200;-53
2024/01/23 02:12:00;;;;;;;0.00;0.00;;;;;;;6.55;100.00;99329.72;5055844;28;20226;-53
2024/01/23 02:14:50;;;;;;;0.00;0.00;;;;;;;6.56;100.00;99336.69;5055457;28;20215;-52
2024/01/23 02:17:38;;;;;;;0.00;0.00;;;;;;;6.56;100.00;99344.56;5035419;28;20204;-53
2024/01/23 02:20:26;;;;;;;0.07;0.07;;;;;;;6.64;100.00;99345.09;5035666;28;20197;-52
2024/01/23 02:23:13;;;;;;;0.00;0.00;;;;;;;6.63;100.00;99353.91;5035712;28;20316;-53
2024/01/23 02:26:02;;;;;;;0.00;0.00;;;;;;;6.66;100.00;99356.44;5043905;28;20221;-53
2024/01/23 02:28:48;;;;;;;0.10;0.10;;;;;;;6.69;100.00;99342.28;5055462;28;20310;-53
2024/01/23 02:31:36;;;;;;;0.10;0.10;;;;;;;6.66;100.00;99342.38;5055402;28;20187;-52
2024/01/23 02:34:24;;;;;;;0.00;0.00;;;;;;;6.63;100.00;99353.91;5055357;28;20212;-52
2024/01/23 02:37:11;;;;;;;0.10;0.10;;;;;;;6.67;100.00;99358.13;5055226;28;20209;-52
2024/01/23 02:39:58;;;;;;;0.07;0.07;;;;;;;6.72;100.00;99364.03;5053758;28;20196;-52
2024/01/23 02:42:47;;;;;;;0.10;0.10;;;;;;;6.67;100.00;99367.81;5054979;28;20199;-53
2024/01/23 02:45:35;;;;;;;0.00;0.00;;;;;;;6.59;100.00;99374.25;5054976;28;20191;-53
2024/01/23 02:48:21;;;;;;;0.00;0.00;;;;;;;6.63;100.00;99384.66;5054991;28;20188;-53
2024/01/23 02:51:08;;;;;;;0.10;0.10;;;;;;;6.64;100.00;99392.47;5054958;28;20192;-54
2024/01/23 02:53:56;;;;;;;0.10;0.10;;;;;;;6.64;100.00;99403.00;5053501;28;20266;-53
2024/01/23 02:56:43;;;;;;;0.00;0.00;;;;;;;6.70;100.00;99396.63;5054764;28;20207;-53
2024/01/23 02:59:32;;;;;;;0.10;0.10;;;;;;;6.73;100.00;99415.75;5054838;28;20196;-53
2024/01/23 03:02:19;;;;;;;0.00;0.00;;;;;;;6.67;100.00;99417.81;5054801;28;20215;-53
2024/01/23 03:05:06;;;;;;;0.10;0.10;;;;;;;6.59;100.00;99418.16;5054536;28;20251;-52
2024/01/23 03:07:53;;;;;;;0.00;0.00;;;;;;;6.53;100.00;99436.81;5054481;28;20258;-53
2024/01/23 03:10:40;;;;;;;0.00;0.00;;;;;;;6.53;100.00;99421.88;5053032;28;20207;-53
2024/01/23 03:13:27;;;;;;;0.10;0.10;;;;;;;6.36;100.00;99434.91;5054628;28;20189;-53
2024/01/23 03:16:15;;;;;;;0.10;0.10;;;;;;;6.34;100.00;99435.91;5039119;28;20219;-53
2024/01/23 03:19:04;;;;;;;0.10;0.10;;;;;;;6.23;100.00;99455.63;5039411;28;20200;-53
2024/01/23 03:21:51;;;;;;;0.10;0.10;;;;;;;6.15;100.00;99470.84;5054255;28;20231;-53
2024/01/23 03:24:38;;;;;;;0.10;0.10;;;;;;;6.12;100.00;99470.13;5052945;28;20681;-52
2024/01/23 03:27:25;;;;;;;0.10;0.10;;;;;;;6.08;100.00;99463.25;5034357;28;20204;-53
2024/01/23 03:30:28;;;;;;;0.10;0.10;;;;;;;6.06;100.00;99462.47;5033673;28;20324;-53
2024/01/23 03:33:16;;;;;;;0.10;0.10;;;;;;;6.08;100.00;99482.56;5034256;28;20196;-53
2024/01/23 03:36:02;;;;;;;0.10;0.10;;;;;;;6.13;100.00;99491.09;5042417;28;20219;-53
2024/01/23 03:38:49;;;;;;;0.10;0.10;;;;;;;5.92;100.00;99516.47;5051559;28;20235;-53
2024/01/23 03:41:37;;;;;;;0.10;0.10;;;;;;;6.09;100.00;99496.56;5053911;28;20211;-53
2024/01/23 03:44:24;;;;;;;0.10;0.10;;;;;;;6.05;100.00;99529.13;5054044;28;20236;-53
2024/01/23 03:47:11;;;;;;;0.00;0.00;;;;;;;5.90;100.00;99551.59;5053598;28;20675;-52
2024/01/23 03:50:00;;;;;;;0.10;0.10;;;;;;;5.80;100.00;99560.75;5053795;28;20300;-53
2024/01/23 03:52:46;;;;;;;0.10;0.10;;;;;;;5.71;100.00;99562.81;5053740;28;20204;-53
2024/01/23 03:55:33;;;;;;;0.10;0.10;;;;;;;5.69;100.00;99538.38;5052013;28;20296;-52
2024/01/23 03:58:20;;;;;;;0.10;0.10;;;;;;;5.65;100.00;99546.41;5053703;28;20263;-53
2024/01/23 04:01:07;;;;;;;0.00;0.00;;;;;;;5.60;100.00;99554.47;5053741;28;20571;-53
2024/01/23 04:03:54;;;;;;;0.10;0.10;;;;;;;5.67;100.00;99555.09;5053136;28;20224;-53
2024/01/23 04:06:42;;;;;;;0.10;0.10;;;;;;;5.62;100.00;99557.91;5053469;28;20228;-52
2024/01/23 04:09:29;;;;;;;0.10;0.10;;;;;;;5.49;100.00;99556.63;5052029;28;20246;-53
2024/01/23 04:12:16;;;;;;;0.10;0.10;;;;;;;5.52;100.00;99556.53;5053337;28;20195;-53
2024/01/23 04:15:05;;;;;;;0.10;0.10;;;;;;;5.53;100.00;99563.50;5053298;28;20212;-53
2024/01/23 04:17:54;;;;;;;0.10;0.10;;;;;;;5.46;100.00;99554.97;5033348;28;20703;-53
2024/01/23 04:20:42;;;;;;;0.10;0.10;;;;;;;5.39;100.00;99545.59;5033377;28;20189;-53
2024/01/23 04:23:30;;;;;;;0.10;0.10;;;;;;;5.32;100.00;99564.28;5033369;28;20193;-53
2024/01/23 04:26:19;;;;;;;0.10;0.10;;;;;;;5.18;100.00;99584.00;5042839;28;20196;-53
2024/01/23 04:29:06;;;;;;;0.10;0.10;;;;;;;5.19;100.00;99584.84;5053116;28;20192;-53
2024/01/23 04:31:53;;;;;;;0.10;0.10;;;;;;;5.26;100.00;99594.25;5053098;28;20191;-53
2024/01/23 04:34:40;;;;;;;0.10;0.10;;;;;;;5.37;100.00;99607.00;5053074;28;20200;-53
2024/01/23 04:37:27;;;;;;;0.07;0.07;;;;;;;5.38;100.00;99617.44;5053041;28;20420;-53
2024/01/23 04:40:16;;;;;;;0.10;0.10;;;;;;;5.42;100.00;99626.09;5051791;28;20243;-53
2024/01/23 04:43:03;;;;;;;0.00;0.00;;;;;;;5.40;100.00;99627.88;5052010;28;20749;-53
2024/01/23 04:45:50;;;;;;;0.10;0.10;;;;;;;5.46;100.00;99628.53;5052769;28;20223;-53
2024/01/23 04:48:38;;;;;;;0.10;0.10;;;;;;;5.54;100.00;99630.03;5052791;28;20223;-52
2024/01/23 04:51:25;;;;;;;0.10;0.10;;;;;;;5.59;100.00;99643.84;5052560;28;20204;-53
2024/01/23 04:54:12;;;;;;;0.10;0.10;;;;;;;5.52;100.00;99647.63;5051484;28;20217;-53
2024/01/23 04:57:00;;;;;;;0.10;0.10;;;;;;;5.46;100.00;99652.19;5052569;28;20339;-53
2024/01/23 04:59:48;;;;;;;0.10;0.10;;;;;;;5.41;100.00;99640.13;5052782;28;20235;-53
2024/01/23 05:02:35;;;;;;;0.10;0.10;;;;;;;5.39;100.00;99653.28;5052263;28;20323;-53
2024/01/23 05:05:22;;;;;;;0.10;0.10;;;;;;;5.31;100.00;99657.97;5052772;28;20192;-53
2024/01/23 05:08:09;;;;;;;0.00;0.00;;;;;;;5.44;100.00;99671.53;5052717;28;20239;-53
2024/01/23 05:10:56;;;;;;;0.10;0.10;;;;;;;5.38;100.00;99672.59;5051933;28;20207;-53
2024/01/23 05:13:44;;;;;;;0.10;0.10;;;;;;;5.45;100.00;99675.88;5052851;28;20266;-52
2024/01/23 05:16:31;;;;;;;0.10;0.10;;;;;;;5.60;100.00;99674.50;5052459;28;20384;-53
2024/01/23 05:19:18;;;;;;;0.10;0.10;;;;;;;5.55;100.00;99681.66;5052561;28;20195;-52
2024/01/23 05:22:05;;;;;;;0.03;0.03;;;;;;;5.50;100.00;99683.59;5052680;28;20196;-53
2024/01/23 05:24:52;;;;;;;0.00;0.00;;;;;;;5.42;100.00;99689.13;5051375;28;20191;-53
2024/01/23 05:27:39;;;;;;;0.10;0.10;;;;;;;5.37;100.00;99698.91;5032631;28;20193;-52
2024/01/23 05:30:27;;;;;;;0.10;0.10;;;;;;;5.28;100.00;99707.09;5032594;28;20244;-53
2024/01/23 05:33:14;;;;;;;0.10;0.10;;;;;;;5.32;100.00;99711.38;5032605;28;20376;-52
2024/01/23 05:36:01;;;;;;;0.10;0.10;;;;;;;5.32;100.00;99691.22;5044493;28;20239;-53
2024/01/23 05:38:48;;;;;;;0.10;0.10;;;;;;;5.31;100.00;99700.00;5051315;28;20200;-53
2024/01/23 05:41:35;;;;;;;0.10;0.10;;;;;;;5.26;100.00;99707.16;5052162;28;20203;-52
2024/01/23 05:44:22;;;;;;;0.03;0.03;;;;;;;5.31;100.00;99720.16;5052382;28;20191;-53
2024/01/23 05:47:10;;;;;;;0.10;0.10;;;;;;;5.30;100.00;99729.78;5052379;28;20199;-52
2024/01/23 05:49:57;;;;;;;0.10;0.10;;;;;;;5.33;100.00;99734.09;5052369;28;20260;-53
2024/01/23 05:52:43;;;;;;;0.10;0.10;;;;;;;5.26;100.00;99737.81;5052640;28;20237;-52
2024/01/23 05:55:31;;;;;;;0.10;0.10;;;;;;;5.21;100.00;99756.38;5054280;28;20199;-53
2024/01/23 05:58:18;;;;;;;0.10;0.10;;;;;;;5.23;100.00;99767.69;5056016;28;20188;-53
2024/01/23 06:01:05;;;;;;;0.10;0.10;;;;;;;5.17;100.00;99778.38;5056015;28;20196;-53
2024/01/23 06:03:54;;;;;;;0.00;0.00;;;;;;;5.24;100.00;99779.91;5055523;28;20232;-53
2024/01/23 06:06:43;;;;;;;0.10;0.10;;;;;;;5.38;100.00;99790.78;5055630;28;20189;-53
2024/01/23 06:09:29;;;;;;;0.10;0.10;;;;;;;5.38;100.00;99790.78;5054465;28;20218;-53
2024/01/23 06:12:16;;;;;;;0.10;0.10;;;;;;;5.27;100.00;99792.91;5055717;28;20197;-52
2024/01/23 06:15:04;;;;;;;0.00;0.00;;;;;;;5.22;100.00;99800.09;5055615;28;20259;-53
2024/01/23 06:17:51;;;;;;;0.00;0.00;;;;;;;5.08;100.00;99807.53;5035383;28;20271;-52
2024/01/23 06:20:39;;;;;;;0.10;0.10;;;;;;;5.06;100.00;99818.09;5035600;28;20205;-53
2024/01/23 06:23:26;;;;;;;0.10;0.10;;;;;;;4.97;100.00;99817.53;5035495;28;20197;-52
2024/01/23 06:26:13;;;;;;;0.00;0.00;;;;;;;4.92;100.00;99822.88;5042869;28;20227;-52
2024/01/23 06:29:01;;;;;;;0.00;0.00;;;;;;;4.83;100.00;99833.69;5055497;28;20246;-53
2024/01/23 06:31:49;;;;;;;0.10;0.10;;;;;;;4.81;100.00;99840.72;5055408;28;20196;-53
2024/01/23 06:34:38;;;;;;;0.00;0.00;;;;;;;4.91;100.00;99843.94;5055419;28;20192;-53
2024/01/23 06:37:27;;;;;;;0.10;0.10;;;;;;;4.90;100.00;99856.19;5055071;28;20220;-53
2024/01/23 06:40:14;;;;;;;0.10;0.10;;;;;;;4.98;100.00;99867.34;5053687;28;20191;-53
2024/01/23 06:43:01;;;;;;;0.00;0.00;;;;;;;4.94;100.00;99875.38;5055195;28;20196;-53
2024/01/23 06:45:48;;;;;;;0.10;0.10;;;;;;;4.86;100.00;99871.19;5055012;28;20192;-52
2024/01/23 06:48:35;;;;;;;0.10;0.10;;;;;;;4.75;100.00;99885.53;5054857;28;20188;-53
2024/01/23 06:51:22;;;;;;;0.10;0.10;;;;;;;4.77;100.00;99887.22;5055051;28;20196;-52
2024/01/23 06:54:10;;;;;;;0.10;0.10;;;;;;;4.79;100.00;99895.88;5053732;28;20200;-53
2024/01/23 06:56:59;;;;;;;0.10;0.10;;;;;;;4.77;100.00;99896.84;5054258;28;20319;-52
2024/01/23 06:59:45;;;;;;;0.07;0.07;;;;;;;4.74;100.00;99902.19;5054754;28;20679;-53
2024/01/23 07:02:32;;;;;;;0.10;0.10;;;;;;;4.71;100.00;99904.88;5054554;28;20196;-52
2024/01/23 07:05:19;;;;;;;0.07;0.07;;;;;;;4.67;100.00;99912.00;5053560;28;20204;-52
2024/01/23 07:08:07;;;;;;;0.10;0.10;;;;;;;4.64;100.00;99903.34;5034796;28;20193;-52
2024/01/23 07:10:55;;;;;;;0.10;0.10;;;;;;;4.78;100.00;99922.19;5034294;28;20272;-52
2024/01/23 07:13:42;;;;;;;0.10;0.10;;;;;;;4.79;100.00;99921.28;5034469;28;20304;-52
2024/01/23 07:16:29;;;;;;;0.10;0.10;;;;;;;4.89;100.00;99927.97;5043168;28;20208;-53
2024/01/23 07:19:16;;;;;;;0.10;0.10;;;;;;;4.93;100.00;99927.00;5054437;28;20200;-52
2024/01/23 07:22:07;;;;;;;0.07;0.07;;;;;;;4.95;100.00;99934.84;5054266;28;20356;-53
2024/01/23 07:24:54;;;;;;;0.10;0.10;;;;;;;4.95;100.00;99956.69;5053052;28;20244;-53
2024/01/23 07:27:42;;;;;;;0.00;0.00;;;;;;;5.09;100.00;99949.25;5054220;28;20259;-53
2024/01/23 07:30:29;;;;;;;0.10;0.10;;;;;;;5.23;100.00;99948.03;5054165;28;20403;-53
2024/01/23 07:33:16;;;;;;;0.07;0.07;;;;;;;5.13;100.00;99953.53;5053936;28;20255;-53
2024/01/23 07:36:03;;;;;;;0.10;0.10;;;;;;;5.28;100.00;99960.09;5053958;28;20199;-53
2024/01/23 07:38:49;;;;;;;0.10;0.10;;;;;;;5.34;100.00;99972.19;5051887;28;20208;-53
2024/01/23 07:41:37;;;;;;;0.00;0.00;;;;;;;5.43;100.00;99978.03;5053878;28;20216;-52
2024/01/23 07:44:25;;;;;;;0.00;0.00;;;;;;;5.48;100.00;99975.25;5053642;28;20188;-53
2024/01/23 07:47:12;;;;;;;0.10;0.10;;;;;;;5.51;100.00;99985.69;5053102;28;20208;-53
2024/01/23 07:49:59;;;;;;;0.10;0.10;;;;;;;5.59;100.00;99985.44;5053840;28;20204;-52
2024/01/23 07:52:46;;;;;;;0.10;0.10;;;;;;;5.59;100.00;99983.69;5053739;28;20196;-52
2024/01/23 07:55:33;;;;;;;0.10;0.10;;;;;;;5.66;100.00;99984.34;5052006;28;20235;-53
2024/01/23 07:58:20;;;;;;;0.10;0.10;;;;;;;5.67;100.00;99971.16;5053519;28;20272;-53
2024/01/23 08:01:09;;;;;;;0.00;0.00;;;;;;;5.66;100.00;99989.63;5053650;28;20200;-53
2024/01/23 08:03:57;;;;;;;0.10;0.10;;;;;;;5.68;100.00;99972.88;5053315;28;20229;-53
2024/01/23 08:06:43;;;;;;;0.10;0.10;;;;;;;5.64;100.00;99986.19;5053452;28;20236;-53
2024/01/23 08:09:30;;;;;;;0.00;0.00;;;;;;;5.65;100.00;99987.91;5052186;28;20200;-53
2024/01/23 08:12:18;;;;;;;0.00;0.00;;;;;;;5.77;100.00;99989.28;5053366;28;20251;-52
2024/01/23 08:15:05;;;;;;;0.10;0.10;;;;;;;5.85;100.00;99987.28;5053429;28;20196;-53
2024/01/23 08:17:55;;;;;;;0.10;0.10;;;;;;;5.87;100.00;99999.47;5053106;28;20220;-53
2024/01/23 08:20:42;;;;;;;0.10;0.10;;;;;;;5.89;100.00;99996.81;5053355;28;20448;-53
2024/01/23 08:23:29;;;;;;;0.00;0.00;;;;;;;5.95;100.00;99999.25;5052184;28;20184;-53
2024/01/23 08:26:16;;;;;;;0.10;0.10;;;;;;;6.07;100.00;100004.13;5053186;28;20200;-53
2024/01/23 08:29:13;;;;;;;0.10;0.10;;;;;;;6.12;100.00;100007.47;5053232;28;20200;-53
2024/01/23 08:32:00;;;;;;;0.10;0.10;;;;;;;6.26;100.00;100015.75;5053225;28;20200;-52
2024/01/23 08:34:49;;;;;;;0.07;0.07;;;;;;;6.30;100.00;100035.81;5052989;28;20191;-53
2024/01/23 08:37:35;;;;;;;0.00;0.00;;;;;;;6.39;100.00;100031.19;5052793;28;20216;-53
2024/01/23 08:40:22;;;;;;;0.00;0.00;;;;;;;6.45;100.00;100036.22;5051658;28;20204;-53
2024/01/23 08:43:10;;;;;;;0.10;0.10;;;;;;;6.50;100.00;100040.44;5052963;28;20200;-53
2024/01/23 08:45:56;;;;;;;0.10;0.10;;;;;;;6.60;100.00;100033.09;5052848;28;20192;-53
2024/01/23 08:48:43;;;;;;;0.00;0.00;;;;;;;6.54;100.00;100038.53;5052617;28;20242;-53
2024/01/23 08:51:32;;;;;;;0.10;0.10;;;;;;;6.69;100.00;100042.44;5052819;28;20239;-53
2024/01/23 08:54:19;;;;;;;0.10;0.10;;;;;;;6.78;100.00;100039.50;5051465;28;20224;-53
2024/01/23 08:57:08;;;;;;;0.00;0.00;;;;;;;6.93;100.00;100046.84;5052511;28;20286;-53
2024/01/23 08:59:55;;;;;;;0.10;0.10;;;;;;;7.08;100.00;100050.75;5052476;28;20200;-53
2024/01/23 09:02:42;;;;;;;0.10;0.10;;;;;;;7.02;100.00;100061.47;5052451;28;20262;-53
2024/01/23 09:05:29;;;;;;;0.10;0.10;;;;;;;7.25;100.00;100060.69;5052730;28;20199;-53
2024/01/23 09:08:23;;;;;;;0.10;0.10;;;;;;;7.49;100.00;100072.09;5032552;28;20312;-53
2024/01/23 09:11:10;;;;;;;0.00;0.00;;;;;;;7.49;100.00;100066.81;5032757;28;20205;-53
2024/01/23 09:13:57;;;;;;;0.10;0.10;;;;;;;7.24;100.00;100073.00;5032611;28;20204;-53
2024/01/23 09:16:44;;;;;;;0.10;0.10;;;;;;;7.26;100.00;100075.56;5041495;28;20203;-53
2024/01/23 09:19:31;;;;;;;0.10;0.10;;;;;;;7.55;100.00;100079.78;5052606;28;20196;-53
2024/01/23 09:22:18;;;;;;;0.10;0.10;;;;;;;7.96;100.00;100079.09;5052608;28;20247;-53
2024/01/23 09:25:08;;;;;;;0.10;0.10;;;;;;;7.68;100.00;100076.63;5051013;28;20283;-53
2024/01/23 09:27:56;;;;;;;0.00;0.00;;;;;;;7.67;100.00;100087.25;5053003;28;20691;-53
2024/01/23 09:30:44;;;;;;;0.00;0.00;;;;;;;7.77;100.00;100085.97;5056574;28;20196;-53
2024/01/23 09:33:31;;;;;;;0.10;0.10;;;;;;;7.71;100.00;100091.47;5056165;28;20196;-53
2024/01/23 09:36:19;;;;;;;0.00;0.00;;;;;;;7.85;100.00;100075.16;5056272;28;20219;-53
2024/01/23 09:39:13;;;;;;;0.10;0.10;;;;;;;8.32;100.00;100097.91;5054677;28;20331;-53
2024/01/23 09:42:03;;;;;;;0.10;0.10;;;;;;;9.40;100.00;100100.44;5055566;28;20655;-52
2024/01/23 09:44:51;;;;;;;0.10;0.10;;;;;;;10.84;100.00;100093.72;5056261;28;20200;-53
2024/01/23 09:47:39;;;;;;;0.10;0.10;;;;;;;11.53;100.00;100100.78;5056215;28;20247;-52
2024/01/23 09:50:28;;;;;;;0.10;0.10;;;;;;;11.61;96.01;100112.69;5055977;28;20259;-53
2024/01/23 09:53:16;;;;;;;0.10;0.10;;;;;;;11.55;94.22;100112.16;5056006;28;20259;-53
2024/01/23 09:56:05;;;;;;;0.10;0.10;;;;;;;12.31;89.78;100122.16;5055729;28;20211;-53
2024/01/23 09:58:55;;;;;;;0.03;0.03;;;;;;;12.48;81.59;100126.56;5055406;28;20351;-53
2024/01/23 10:01:43;;;;;;;0.00;0.00;;;;;;;12.13;84.08;100117.88;5040301;28;20643;-53
2024/01/23 10:04:30;;;;;;;0.10;0.10;;;;;;;13.35;77.07;100110.00;5055278;28;20220;-53
2024/01/23 10:07:21;;;;;;;0.10;0.10;;;;;;;13.85;72.96;100120.22;5055325;28;20702;-53
2024/01/23 10:10:13;;;;;;;0.10;0.10;;;;;;;13.58;71.97;100112.13;5053931;28;20189;-53
2024/01/23 10:13:01;;;;;;;0.10;0.10;;;;;;;13.06;72.33;100117.88;5055088;28;20315;-54
2024/01/23 10:15:54;;;;;;;0.10;0.10;;;;;;;11.90;78.42;100124.44;5054624;28;20204;-53
2024/01/23 10:18:40;;;;;;;0.10;0.10;;;;;;;11.82;85.95;100128.44;5055248;28;20219;-54
2024/01/23 10:21:28;;;;;;;0.10;0.10;;;;;;;10.83;88.84;100127.31;5055462;28;20191;-53
2024/01/23 10:24:16;;;;;;;0.10;0.10;;;;;;;11.20;94.30;100125.47;5053953;28;20270;-53
2024/01/23 10:27:03;;;;;;;0.10;0.10;;;;;;;11.30;93.22;100133.81;5055446;28;20208;-53
2024/01/23 10:29:50;;;;;;;0.10;0.10;;;;;;;10.64;95.97;100144.19;5054947;28;20243;-53
2024/01/23 10:32:39;;;;;;;0.10;0.10;;;;;;;9.76;100.00;100142.06;5054995;28;20228;-53
2024/01/23 10:35:27;;;;;;;0.10;0.10;;;;;;;9.34;100.00;100147.44;5055030;28;20204;-53
2024/01/23 10:38:16;;;;;;;0.10;0.10;;;;;;;9.05;100.00;100167.16;5035074;28;20208;-53
2024/01/23 10:41:04;;;;;;;0.10;0.10;;;;;;;8.78;100.00;100154.19;5033707;28;20193;-53
2024/01/23 10:43:53;;;;;;;0.10;0.10;;;;;;;8.55;100.00;100155.09;5035145;28;20212;-53
2024/01/23 10:46:43;;;;;;;0.10;0.10;;;;;;;8.54;100.00;100161.31;5038219;28;20695;-53
2024/01/23 10:49:33;;;;;;;0.10;0.10;;;;;;;8.86;100.00;100161.78;5053443;28;20193;-53
2024/01/23 10:52:21;;;;;;;0.10;0.10;;;;;;;8.89;100.00;100157.25;5053286;28;20243;-53
2024/01/23 10:55:09;;;;;;;0.10;0.10;;;;;;;8.86;100.00;100161.78;5053061;28;20312;-53
2024/01/23 10:57:58;;;;;;;0.10;0.10;;;;;;;8.84;100.00;100177.69;5054422;28;20200;-53
2024/01/23 11:00:47;;;;;;;0.10;0.10;;;;;;;8.77;100.00;100176.22;5054738;28;20197;-53
2024/01/23 11:03:35;;;;;;;0.10;0.10;;;;;;;9.14;100.00;100178.22;5054563;28;20232;-53
2024/01/23 11:06:28;;;;;;;0.10;0.10;;;;;;;8.94;100.00;100169.41;5054630;28;20183;-53
2024/01/23 11:09:19;;;;;;;0.10;0.10;;;;;;;9.04;100.00;100168.09;5053363;28;20196;-53
2024/01/23 11:12:19;;;;;;;0.10;0.10;;;;;;;8.96;100.00;100173.69;5054422;28;20192;-54
2024/01/23 11:15:13;;;;;;;0.10;0.10;;;;;;;8.96;100.00;100162.25;5054523;28;20208;-53
2024/01/23 11:18:28;;;;;;;0.10;0.10;;;;;;;8.83;100.00;100167.19;5054149;28;20330;-53
2024/01/23 11:21:17;;;;;;;0.10;0.10;;;;;;;8.43;100.00;100152.09;5054503;28;20206;-53
2024/01/23 11:24:06;;;;;;;0.10;0.10;;;;;;;8.40;100.00;100166.28;5052559;28;20197;-53
2024/01/23 11:26:55;;;;;;;0.10;0.10;;;;;;;8.28;100.00;100149.09;5054155;28;20258;-52
2024/01/23 11:29:43;;;;;;;0.10;0.10;;;;;;;8.32;100.00;100149.84;5054051;28;20184;-52
2024/01/23 11:32:30;;;;;;;0.10;0.10;;;;;;;8.30;100.00;100164.88;5054444;28;20328;-53
2024/01/23 11:35:18;;;;;;;0.10;0.10;;;;;;;8.62;100.00;100166.28;5053978;28;20195;-53
2024/01/23 11:38:15;;;;;;;0.03;0.03;;;;;;;8.50;100.00;100159.72;5053985;28;20204;-53
2024/01/23 11:41:13;;;;;;;0.10;0.10;;;;;;;8.99;100.00;100159.53;5052866;28;20224;-53
2024/01/23 11:44:05;;;;;;;0.10;0.10;;;;;;;9.25;100.00;100174.28;5053958;28;20196;-53
2024/01/23 11:46:52;;;;;;;0.10;0.10;;;;;;;9.06;100.00;100169.75;5053354;28;20196;-53
2024/01/23 11:49:40;;;;;;;0.10;0.10;;;;;;;9.00;100.00;100177.94;5052993;28;20200;-53
2024/01/23 11:52:28;;;;;;;0.10;0.10;;;;;;;9.05;100.00;100167.16;5052671;28;20207;-53
2024/01/23 11:55:16;;;;;;;0.10;0.10;;;;;;;9.46;100.00;100166.31;5051791;28;20200;-53
2024/01/23 11:58:04;;;;;;;0.00;0.00;;;;;;;10.13;100.00;100165.06;5053334;28;20236;-53
2024/01/23 12:00:51;;;;;;;0.10;0.10;;;;;;;10.12;100.00;100170.41;5053580;28;20254;-53
2024/01/23 12:03:46;;;;;;;0.10;0.10;;;;;;;10.72;100.00;100152.63;5052974;28;20319;-53
2024/01/23 12:06:33;;;;;;;0.10;0.10;;;;;;;10.95;100.00;100141.75;5053494;28;20199;-54
2024/01/23 12:09:20;;;;;;;0.10;0.10;;;;;;;10.30;100.00;100143.97;5051959;28;20258;-53
2024/01/23 12:12:07;;;;;;;0.10;0.10;;;;;;;9.72;100.00;100132.53;5053304;28;20192;-53
2024/01/23 12:14:56;;;;;;;0.10;0.10;;;;;;;10.51;97.99;100151.84;5053091;28;20266;-53
2024/01/23 12:17:49;;;;;;;0.10;0.10;;;;;;;11.47;87.03;100131.13;5053316;28;20250;-53
2024/01/23 12:20:36;;;;;;;0.10;0.10;;;;;;;10.52;85.80;100132.41;5037642;28;20270;-53
2024/01/23 12:23:24;;;;;;;0.00;0.00;;;;;;;11.04;88.46;100117.41;5052043;28;20255;-53
2024/01/23 12:26:11;;;;;;;0.10;0.10;;;;;;;12.66;78.02;100115.81;5053032;28;20707;-53
2024/01/23 12:28:58;;;;;;;0.00;0.00;;;;;;;14.99;61.55;100121.81;5053270;28;20192;-53
2024/01/23 12:31:49;;;;;;;0.00;0.00;;;;;;;14.74;58.15;100122.56;5053036;28;20188;-53
2024/01/23 12:34:36;;;;;;;0.10;0.10;;;;;;;13.24;60.99;100123.09;5051174;28;20270;-53
2024/01/23 12:37:28;;;;;;;0.10;0.10;;;;;;;12.10;69.79;100119.84;5050588;28;20223;-54
2024/01/23 12:40:15;;;;;;;0.10;0.10;;;;;;;14.07;63.38;100118.88;5050811;28;20215;-53
2024/01/23 12:43:02;;;;;;;0.10;0.10;;;;;;;13.41;60.14;100128.25;5036126;28;20208;-53
2024/01/23 12:45:52;;;;;;;0.10;0.10;;;;;;;12.88;61.86;100101.19;5051427;28;20192;-53
2024/01/23 12:48:43;;;;;;;0.10;0.10;;;;;;;13.52;63.26;100103.66;5031535;28;20204;-53
2024/01/23 12:51:30;;;;;;;0.10;0.10;;;;;;;11.88;67.33;100109.53;5030031;28;20591;-54
2024/01/23 12:54:18;;;;;;;0.10;0.10;;;;;;;11.75;69.48;100107.50;5029682;28;20208;-53
2024/01/23 12:57:05;;;;;;;0.10;0.10;;;;;;;11.34;73.66;100127.41;5040161;28;20202;-53
2024/01/23 12:59:52;;;;;;;0.10;0.10;;;;;;;10.16;80.56;100108.47;5051177;28;20741;-52
2024/01/23 13:02:39;;;;;;;0.10;0.10;;;;;;;9.83;89.64;100116.16;5051891;28;20231;-53
2024/01/23 13:05:28;;;;;;;0.10;0.10;;;;;;;9.42;96.33;100095.09;5052394;28;20211;-53